sensor_id;sensor_type;location;lat;lon;timestamp;P1;durP1;ratioP1;P2;durP2;ratioP2
37205;SDS011;23099;42.636;23.198;2022-12-29T00:02:17;110.78;;;53.85;;
37205;SDS011;23099;42.636;23.198;2022-12-29T00:04:44;124.07;;;56.53;;
37205;SDS011;23099;42.636;23.198;2022-12-29T00:07:10;114.78;;;52.13;;
37205;SDS011;23099;42.636;23.198;2022-12-29T00:09:37;104.43;;;51.30;;
37205;SDS011;23099;42.636;23.198;2022-12-29T00:12:04;118.75;;;55.67;;
37205;SDS011;23099;42.636;23.198;2022-12-29T00:14:31;129.05;;;58.83;;
37205;SDS011;23099;42.636;23.198;2022-12-29T00:17:16;126.15;;;57.85;;
37205;SDS011;23099;42.636;23.198;2022-12-29T00:19:43;109.85;;;53.13;;
37205;SDS011;23099;42.636;23.198;2022-12-29T00:22:27;87.80;;;43.28;;
37205;SDS011;23099;42.636;23.198;2022-12-29T00:25:11;80.72;;;41.28;;
37205;SDS011;23099;42.636;23.198;2022-12-29T00:27:56;71.80;;;38.97;;
37205;SDS011;23099;42.636;23.198;2022-12-29T00:30:40;73.25;;;39.00;;
37205;SDS011;23099;42.636;23.198;2022-12-29T00:33:28;73.53;;;38.60;;
37205;SDS011;23099;42.636;23.198;2022-12-29T00:36:15;69.90;;;38.00;;
37205;SDS011;23099;42.636;23.198;2022-12-29T00:38:45;66.00;;;37.15;;
37205;SDS011;23099;42.636;23.198;2022-12-29T00:41:32;71.95;;;37.38;;
37205;SDS011;23099;42.636;23.198;2022-12-29T00:44:16;64.10;;;36.40;;
37205;SDS011;23099;42.636;23.198;2022-12-29T00:46:43;68.28;;;36.72;;
37205;SDS011;23099;42.636;23.198;2022-12-29T00:49:12;61.72;;;34.28;;
37205;SDS011;23099;42.636;23.198;2022-12-29T00:51:59;63.33;;;34.17;;
37205;SDS011;23099;42.636;23.198;2022-12-29T00:54:27;60.00;;;34.90;;
37205;SDS011;23099;42.636;23.198;2022-12-29T00:56:54;55.33;;;30.80;;
37205;SDS011;23099;42.636;23.198;2022-12-29T00:59:21;57.45;;;32.03;;
37205;SDS011;23099;42.636;23.198;2022-12-29T01:01:49;51.78;;;29.48;;
37205;SDS011;23099;42.636;23.198;2022-12-29T01:04:19;53.53;;;29.38;;
37205;SDS011;23099;42.636;23.198;2022-12-29T01:06:46;52.45;;;29.27;;
37205;SDS011;23099;42.636;23.198;2022-12-29T01:09:13;52.03;;;29.70;;
37205;SDS011;23099;42.636;23.198;2022-12-29T01:11:57;56.38;;;29.98;;
37205;SDS011;23099;42.636;23.198;2022-12-29T01:14:24;55.72;;;29.52;;
37205;SDS011;23099;42.636;23.198;2022-12-29T01:16:51;54.03;;;29.38;;
37205;SDS011;23099;42.636;23.198;2022-12-29T01:19:20;55.47;;;29.40;;
37205;SDS011;23099;42.636;23.198;2022-12-29T01:21:47;54.47;;;30.08;;
37205;SDS011;23099;42.636;23.198;2022-12-29T01:24:14;48.92;;;27.92;;
37205;SDS011;23099;42.636;23.198;2022-12-29T01:26:41;53.63;;;29.63;;
37205;SDS011;23099;42.636;23.198;2022-12-29T01:29:08;58.33;;;30.63;;
37205;SDS011;23099;42.636;23.198;2022-12-29T01:31:35;67.55;;;34.47;;
37205;SDS011;23099;42.636;23.198;2022-12-29T01:34:02;57.90;;;30.98;;
37205;SDS011;23099;42.636;23.198;2022-12-29T01:36:30;56.00;;;28.55;;
37205;SDS011;23099;42.636;23.198;2022-12-29T01:38:57;50.80;;;29.38;;
37205;SDS011;23099;42.636;23.198;2022-12-29T01:41:24;53.55;;;28.52;;
37205;SDS011;23099;42.636;23.198;2022-12-29T01:43:51;53.22;;;30.45;;
37205;SDS011;23099;42.636;23.198;2022-12-29T01:46:20;52.05;;;29.15;;
37205;SDS011;23099;42.636;23.198;2022-12-29T01:48:51;50.33;;;29.40;;
37205;SDS011;23099;42.636;23.198;2022-12-29T01:51:20;50.35;;;28.08;;
37205;SDS011;23099;42.636;23.198;2022-12-29T01:53:51;52.17;;;28.75;;
37205;SDS011;23099;42.636;23.198;2022-12-29T01:56:19;62.13;;;30.20;;
37205;SDS011;23099;42.636;23.198;2022-12-29T01:58:48;65.43;;;31.80;;
37205;SDS011;23099;42.636;23.198;2022-12-29T02:01:18;68.15;;;32.30;;
37205;SDS011;23099;42.636;23.198;2022-12-29T02:03:46;64.18;;;30.95;;
37205;SDS011;23099;42.636;23.198;2022-12-29T02:06:16;61.30;;;31.38;;
37205;SDS011;23099;42.636;23.198;2022-12-29T02:08:47;62.67;;;30.23;;
37205;SDS011;23099;42.636;23.198;2022-12-29T02:11:18;59.72;;;30.50;;
37205;SDS011;23099;42.636;23.198;2022-12-29T02:13:45;71.22;;;34.38;;
37205;SDS011;23099;42.636;23.198;2022-12-29T02:16:18;69.05;;;32.10;;
37205;SDS011;23099;42.636;23.198;2022-12-29T02:18:59;59.60;;;34.80;;
37205;SDS011;23099;42.636;23.198;2022-12-29T02:21:45;58.90;;;32.25;;
37205;SDS011;23099;42.636;23.198;2022-12-29T02:27:30;72.05;;;42.08;;
37205;SDS011;23099;42.636;23.198;2022-12-29T02:30:27;74.72;;;43.83;;
37205;SDS011;23099;42.636;23.198;2022-12-29T02:33:08;72.68;;;40.15;;
37205;SDS011;23099;42.636;23.198;2022-12-29T02:35:56;58.92;;;33.53;;
37205;SDS011;23099;42.636;23.198;2022-12-29T02:38:38;59.95;;;33.58;;
37205;SDS011;23099;42.636;23.198;2022-12-29T02:41:16;61.13;;;31.30;;
37205;SDS011;23099;42.636;23.198;2022-12-29T02:43:48;50.20;;;28.45;;
37205;SDS011;23099;42.636;23.198;2022-12-29T02:46:21;53.33;;;30.10;;
37205;SDS011;23099;42.636;23.198;2022-12-29T02:48:54;54.30;;;30.25;;
37205;SDS011;23099;42.636;23.198;2022-12-29T02:51:32;54.38;;;29.83;;
37205;SDS011;23099;42.636;23.198;2022-12-29T02:54:03;52.53;;;30.58;;
37205;SDS011;23099;42.636;23.198;2022-12-29T02:56:47;59.17;;;32.50;;
37205;SDS011;23099;42.636;23.198;2022-12-29T02:59:14;56.45;;;32.25;;
37205;SDS011;23099;42.636;23.198;2022-12-29T03:01:50;62.53;;;33.83;;
37205;SDS011;23099;42.636;23.198;2022-12-29T03:05:00;61.40;;;34.65;;
37205;SDS011;23099;42.636;23.198;2022-12-29T03:07:39;67.68;;;36.17;;
37205;SDS011;23099;42.636;23.198;2022-12-29T03:10:15;65.18;;;35.10;;
37205;SDS011;23099;42.636;23.198;2022-12-29T03:12:54;60.95;;;35.10;;
37205;SDS011;23099;42.636;23.198;2022-12-29T03:15:48;60.03;;;33.15;;
37205;SDS011;23099;42.636;23.198;2022-12-29T03:18:28;60.97;;;32.03;;
37205;SDS011;23099;42.636;23.198;2022-12-29T03:21:12;65.05;;;33.47;;
37205;SDS011;23099;42.636;23.198;2022-12-29T03:23:43;62.45;;;33.30;;
37205;SDS011;23099;42.636;23.198;2022-12-29T03:26:14;61.65;;;31.98;;
37205;SDS011;23099;42.636;23.198;2022-12-29T03:28:44;59.17;;;32.63;;
37205;SDS011;23099;42.636;23.198;2022-12-29T03:31:15;56.55;;;30.63;;
37205;SDS011;23099;42.636;23.198;2022-12-29T03:33:45;60.08;;;32.47;;
37205;SDS011;23099;42.636;23.198;2022-12-29T03:36:15;61.40;;;32.92;;
37205;SDS011;23099;42.636;23.198;2022-12-29T03:38:48;59.60;;;32.67;;
37205;SDS011;23099;42.636;23.198;2022-12-29T03:41:23;63.90;;;32.88;;
37205;SDS011;23099;42.636;23.198;2022-12-29T03:43:54;57.97;;;31.52;;
37205;SDS011;23099;42.636;23.198;2022-12-29T03:46:21;57.08;;;31.02;;
37205;SDS011;23099;42.636;23.198;2022-12-29T03:48:49;60.33;;;32.33;;
37205;SDS011;23099;42.636;23.198;2022-12-29T03:51:16;59.67;;;31.88;;
37205;SDS011;23099;42.636;23.198;2022-12-29T03:53:42;60.67;;;31.13;;
37205;SDS011;23099;42.636;23.198;2022-12-29T03:56:09;58.20;;;31.20;;
37205;SDS011;23099;42.636;23.198;2022-12-29T03:58:36;60.13;;;35.75;;
37205;SDS011;23099;42.636;23.198;2022-12-29T04:01:02;103.45;;;84.70;;
37205;SDS011;23099;42.636;23.198;2022-12-29T04:03:29;60.65;;;33.90;;
37205;SDS011;23099;42.636;23.198;2022-12-29T04:05:57;58.92;;;34.35;;
37205;SDS011;23099;42.636;23.198;2022-12-29T04:08:24;70.28;;;45.13;;
37205;SDS011;23099;42.636;23.198;2022-12-29T04:10:50;81.43;;;57.55;;
37205;SDS011;23099;42.636;23.198;2022-12-29T04:13:17;70.22;;;41.92;;
37205;SDS011;23099;42.636;23.198;2022-12-29T04:15:44;67.00;;;38.67;;
37205;SDS011;23099;42.636;23.198;2022-12-29T04:18:11;63.88;;;37.10;;
37205;SDS011;23099;42.636;23.198;2022-12-29T04:20:38;74.63;;;39.55;;
37205;SDS011;23099;42.636;23.198;2022-12-29T04:23:23;63.58;;;38.10;;
37205;SDS011;23099;42.636;23.198;2022-12-29T04:25:50;59.70;;;34.80;;
37205;SDS011;23099;42.636;23.198;2022-12-29T04:28:17;58.38;;;33.03;;
37205;SDS011;23099;42.636;23.198;2022-12-29T04:30:44;58.10;;;33.22;;
37205;SDS011;23099;42.636;23.198;2022-12-29T04:33:11;61.13;;;35.88;;
37205;SDS011;23099;42.636;23.198;2022-12-29T04:35:38;72.53;;;41.10;;
37205;SDS011;23099;42.636;23.198;2022-12-29T04:38:05;80.63;;;44.47;;
37205;SDS011;23099;42.636;23.198;2022-12-29T04:40:33;72.53;;;40.97;;
37205;SDS011;23099;42.636;23.198;2022-12-29T04:42:59;72.68;;;40.78;;
37205;SDS011;23099;42.636;23.198;2022-12-29T04:45:26;71.75;;;41.78;;
37205;SDS011;23099;42.636;23.198;2022-12-29T04:47:53;79.05;;;46.00;;
37205;SDS011;23099;42.636;23.198;2022-12-29T04:50:20;76.82;;;44.03;;
37205;SDS011;23099;42.636;23.198;2022-12-29T04:52:46;65.00;;;36.75;;
37205;SDS011;23099;42.636;23.198;2022-12-29T04:55:13;72.97;;;41.05;;
37205;SDS011;23099;42.636;23.198;2022-12-29T04:57:41;76.25;;;44.85;;
37205;SDS011;23099;42.636;23.198;2022-12-29T05:00:08;80.35;;;47.97;;
37205;SDS011;23099;42.636;23.198;2022-12-29T05:02:36;69.65;;;42.95;;
37205;SDS011;23099;42.636;23.198;2022-12-29T05:05:03;67.63;;;40.45;;
37205;SDS011;23099;42.636;23.198;2022-12-29T05:07:30;71.13;;;40.63;;
37205;SDS011;23099;42.636;23.198;2022-12-29T05:09:58;66.03;;;37.90;;
37205;SDS011;23099;42.636;23.198;2022-12-29T05:12:25;60.72;;;33.88;;
37205;SDS011;23099;42.636;23.198;2022-12-29T05:14:53;62.53;;;35.30;;
37205;SDS011;23099;42.636;23.198;2022-12-29T05:17:20;59.55;;;32.40;;
37205;SDS011;23099;42.636;23.198;2022-12-29T05:19:46;63.13;;;33.95;;
37205;SDS011;23099;42.636;23.198;2022-12-29T05:22:13;56.15;;;32.78;;
37205;SDS011;23099;42.636;23.198;2022-12-29T05:24:40;59.65;;;34.17;;
37205;SDS011;23099;42.636;23.198;2022-12-29T05:27:07;62.35;;;33.97;;
37205;SDS011;23099;42.636;23.198;2022-12-29T05:29:33;66.28;;;35.85;;
37205;SDS011;23099;42.636;23.198;2022-12-29T05:32:02;64.20;;;35.05;;
37205;SDS011;23099;42.636;23.198;2022-12-29T05:34:28;71.50;;;38.90;;
37205;SDS011;23099;42.636;23.198;2022-12-29T05:36:55;75.18;;;39.58;;
37205;SDS011;23099;42.636;23.198;2022-12-29T05:39:22;73.07;;;38.40;;
37205;SDS011;23099;42.636;23.198;2022-12-29T05:41:49;72.78;;;40.85;;
37205;SDS011;23099;42.636;23.198;2022-12-29T05:44:15;74.50;;;40.30;;
37205;SDS011;23099;42.636;23.198;2022-12-29T05:46:42;76.85;;;40.58;;
37205;SDS011;23099;42.636;23.198;2022-12-29T05:49:10;67.15;;;37.05;;
37205;SDS011;23099;42.636;23.198;2022-12-29T05:51:37;71.15;;;37.22;;
37205;SDS011;23099;42.636;23.198;2022-12-29T05:54:03;70.78;;;37.53;;
37205;SDS011;23099;42.636;23.198;2022-12-29T05:56:30;71.35;;;38.03;;
37205;SDS011;23099;42.636;23.198;2022-12-29T05:58:57;70.82;;;37.60;;
37205;SDS011;23099;42.636;23.198;2022-12-29T06:01:23;70.82;;;37.47;;
37205;SDS011;23099;42.636;23.198;2022-12-29T06:03:50;80.88;;;41.70;;
37205;SDS011;23099;42.636;23.198;2022-12-29T06:06:18;75.95;;;41.38;;
37205;SDS011;23099;42.636;23.198;2022-12-29T06:08:45;76.93;;;39.55;;
37205;SDS011;23099;42.636;23.198;2022-12-29T06:11:12;69.70;;;38.08;;
37205;SDS011;23099;42.636;23.198;2022-12-29T06:13:39;74.32;;;37.63;;
37205;SDS011;23099;42.636;23.198;2022-12-29T06:16:06;75.28;;;38.63;;
37205;SDS011;23099;42.636;23.198;2022-12-29T06:18:33;82.78;;;38.95;;
37205;SDS011;23099;42.636;23.198;2022-12-29T06:20:59;76.22;;;39.53;;
37205;SDS011;23099;42.636;23.198;2022-12-29T06:23:28;78.63;;;39.72;;
37205;SDS011;23099;42.636;23.198;2022-12-29T06:25:55;79.78;;;41.33;;
37205;SDS011;23099;42.636;23.198;2022-12-29T06:28:22;80.18;;;41.60;;
37205;SDS011;23099;42.636;23.198;2022-12-29T06:30:49;76.45;;;40.15;;
37205;SDS011;23099;42.636;23.198;2022-12-29T06:33:16;79.10;;;40.17;;
37205;SDS011;23099;42.636;23.198;2022-12-29T06:35:43;79.88;;;40.15;;
37205;SDS011;23099;42.636;23.198;2022-12-29T06:38:10;75.28;;;39.80;;
37205;SDS011;23099;42.636;23.198;2022-12-29T06:40:38;110.90;;;82.97;;
37205;SDS011;23099;42.636;23.198;2022-12-29T06:43:06;81.63;;;43.35;;
37205;SDS011;23099;42.636;23.198;2022-12-29T06:45:33;75.03;;;38.75;;
37205;SDS011;23099;42.636;23.198;2022-12-29T06:47:59;72.60;;;37.00;;
37205;SDS011;23099;42.636;23.198;2022-12-29T06:50:26;71.15;;;36.53;;
37205;SDS011;23099;42.636;23.198;2022-12-29T06:52:53;68.63;;;34.97;;
37205;SDS011;23099;42.636;23.198;2022-12-29T06:55:19;70.32;;;35.58;;
37205;SDS011;23099;42.636;23.198;2022-12-29T06:57:47;72.32;;;35.15;;
37205;SDS011;23099;42.636;23.198;2022-12-29T07:00:14;66.95;;;35.40;;
37205;SDS011;23099;42.636;23.198;2022-12-29T07:02:42;63.97;;;33.95;;
37205;SDS011;23099;42.636;23.198;2022-12-29T07:05:08;66.90;;;35.53;;
37205;SDS011;23099;42.636;23.198;2022-12-29T07:07:35;69.10;;;38.65;;
37205;SDS011;23099;42.636;23.198;2022-12-29T07:10:02;68.88;;;40.35;;
37205;SDS011;23099;42.636;23.198;2022-12-29T07:12:29;83.78;;;45.55;;
37205;SDS011;23099;42.636;23.198;2022-12-29T07:14:57;73.03;;;38.67;;
37205;SDS011;23099;42.636;23.198;2022-12-29T07:17:24;69.82;;;38.22;;
37205;SDS011;23099;42.636;23.198;2022-12-29T07:19:51;78.70;;;44.15;;
37205;SDS011;23099;42.636;23.198;2022-12-29T07:22:17;87.38;;;49.33;;
37205;SDS011;23099;42.636;23.198;2022-12-29T07:24:44;102.68;;;54.35;;
37205;SDS011;23099;42.636;23.198;2022-12-29T07:27:11;105.25;;;56.58;;
37205;SDS011;23099;42.636;23.198;2022-12-29T07:29:37;100.20;;;53.83;;
37205;SDS011;23099;42.636;23.198;2022-12-29T07:32:05;94.15;;;53.85;;
37205;SDS011;23099;42.636;23.198;2022-12-29T07:34:32;102.63;;;55.83;;
37205;SDS011;23099;42.636;23.198;2022-12-29T07:37:00;102.30;;;57.20;;
37205;SDS011;23099;42.636;23.198;2022-12-29T07:39:26;101.68;;;57.78;;
37205;SDS011;23099;42.636;23.198;2022-12-29T07:41:53;101.55;;;58.08;;
37205;SDS011;23099;42.636;23.198;2022-12-29T07:44:20;100.80;;;58.45;;
37205;SDS011;23099;42.636;23.198;2022-12-29T07:46:46;98.72;;;59.05;;
37205;SDS011;23099;42.636;23.198;2022-12-29T07:49:14;102.30;;;60.03;;
37205;SDS011;23099;42.636;23.198;2022-12-29T07:51:41;103.82;;;60.15;;
37205;SDS011;23099;42.636;23.198;2022-12-29T07:54:08;104.63;;;60.42;;
37205;SDS011;23099;42.636;23.198;2022-12-29T07:56:37;104.63;;;62.95;;
37205;SDS011;23099;42.636;23.198;2022-12-29T07:59:03;97.10;;;55.67;;
37205;SDS011;23099;42.636;23.198;2022-12-29T08:01:30;94.88;;;53.85;;
37205;SDS011;23099;42.636;23.198;2022-12-29T08:03:57;84.93;;;50.70;;
37205;SDS011;23099;42.636;23.198;2022-12-29T08:06:25;77.55;;;44.95;;
37205;SDS011;23099;42.636;23.198;2022-12-29T08:08:51;72.50;;;41.13;;
37205;SDS011;23099;42.636;23.198;2022-12-29T08:11:18;60.70;;;34.72;;
37205;SDS011;23099;42.636;23.198;2022-12-29T08:13:45;57.85;;;31.40;;
37205;SDS011;23099;42.636;23.198;2022-12-29T08:16:11;55.45;;;30.55;;
37205;SDS011;23099;42.636;23.198;2022-12-29T08:18:38;78.32;;;38.17;;
37205;SDS011;23099;42.636;23.198;2022-12-29T08:21:05;55.22;;;30.15;;
37205;SDS011;23099;42.636;23.198;2022-12-29T08:23:33;55.85;;;31.08;;
37205;SDS011;23099;42.636;23.198;2022-12-29T08:26:00;58.30;;;32.03;;
37205;SDS011;23099;42.636;23.198;2022-12-29T08:28:28;63.53;;;35.30;;
37205;SDS011;23099;42.636;23.198;2022-12-29T08:30:56;68.50;;;36.90;;
37205;SDS011;23099;42.636;23.198;2022-12-29T08:33:24;65.32;;;38.17;;
37205;SDS011;23099;42.636;23.198;2022-12-29T08:35:51;67.25;;;39.20;;
37205;SDS011;23099;42.636;23.198;2022-12-29T08:38:18;63.10;;;36.83;;
37205;SDS011;23099;42.636;23.198;2022-12-29T08:40:46;60.80;;;35.92;;
37205;SDS011;23099;42.636;23.198;2022-12-29T08:43:12;67.93;;;38.00;;
37205;SDS011;23099;42.636;23.198;2022-12-29T08:45:39;66.18;;;37.95;;
37205;SDS011;23099;42.636;23.198;2022-12-29T08:48:06;64.68;;;38.17;;
37205;SDS011;23099;42.636;23.198;2022-12-29T08:50:33;63.78;;;38.25;;
37205;SDS011;23099;42.636;23.198;2022-12-29T08:52:59;54.10;;;33.35;;
37205;SDS011;23099;42.636;23.198;2022-12-29T08:55:26;58.00;;;35.05;;
37205;SDS011;23099;42.636;23.198;2022-12-29T08:57:54;60.00;;;35.58;;
37205;SDS011;23099;42.636;23.198;2022-12-29T09:00:21;73.72;;;39.22;;
37205;SDS011;23099;42.636;23.198;2022-12-29T09:02:48;57.13;;;33.20;;
37205;SDS011;23099;42.636;23.198;2022-12-29T09:05:14;54.85;;;32.88;;
37205;SDS011;23099;42.636;23.198;2022-12-29T09:07:41;48.38;;;29.42;;
37205;SDS011;23099;42.636;23.198;2022-12-29T09:10:08;50.05;;;28.95;;
37205;SDS011;23099;42.636;23.198;2022-12-29T09:12:34;49.75;;;29.63;;
37205;SDS011;23099;42.636;23.198;2022-12-29T09:15:03;49.22;;;29.48;;
37205;SDS011;23099;42.636;23.198;2022-12-29T09:17:31;39.33;;;24.00;;
37205;SDS011;23099;42.636;23.198;2022-12-29T09:20:10;43.15;;;22.67;;
37205;SDS011;23099;42.636;23.198;2022-12-29T09:22:38;36.83;;;21.58;;
37205;SDS011;23099;42.636;23.198;2022-12-29T09:25:05;37.38;;;20.17;;
37205;SDS011;23099;42.636;23.198;2022-12-29T09:27:32;37.85;;;19.73;;
37205;SDS011;23099;42.636;23.198;2022-12-29T09:29:59;41.88;;;21.92;;
37205;SDS011;23099;42.636;23.198;2022-12-29T09:32:27;35.70;;;19.20;;
37205;SDS011;23099;42.636;23.198;2022-12-29T09:34:54;27.38;;;13.68;;
37205;SDS011;23099;42.636;23.198;2022-12-29T09:37:20;26.42;;;14.15;;
37205;SDS011;23099;42.636;23.198;2022-12-29T09:39:47;20.92;;;10.95;;
37205;SDS011;23099;42.636;23.198;2022-12-29T09:42:16;25.67;;;13.65;;
37205;SDS011;23099;42.636;23.198;2022-12-29T09:44:53;31.20;;;13.57;;
37205;SDS011;23099;42.636;23.198;2022-12-29T09:47:29;23.13;;;11.35;;
37205;SDS011;23099;42.636;23.198;2022-12-29T09:49:58;24.75;;;10.70;;
37205;SDS011;23099;42.636;23.198;2022-12-29T09:52:30;44.08;;;19.50;;
37205;SDS011;23099;42.636;23.198;2022-12-29T09:55:01;22.80;;;11.20;;
37205;SDS011;23099;42.636;23.198;2022-12-29T09:57:31;19.60;;;10.55;;
37205;SDS011;23099;42.636;23.198;2022-12-29T10:00:03;18.30;;;9.57;;
37205;SDS011;23099;42.636;23.198;2022-12-29T10:02:36;19.42;;;10.35;;
37205;SDS011;23099;42.636;23.198;2022-12-29T10:05:12;17.13;;;9.05;;
37205;SDS011;23099;42.636;23.198;2022-12-29T10:07:48;18.45;;;9.43;;
37205;SDS011;23099;42.636;23.198;2022-12-29T10:10:29;18.75;;;8.25;;
37205;SDS011;23099;42.636;23.198;2022-12-29T10:13:04;18.65;;;8.35;;
37205;SDS011;23099;42.636;23.198;2022-12-29T10:15:45;13.73;;;6.93;;
37205;SDS011;23099;42.636;23.198;2022-12-29T10:18:27;15.02;;;7.22;;
37205;SDS011;23099;42.636;23.198;2022-12-29T10:21:05;13.38;;;7.38;;
37205;SDS011;23099;42.636;23.198;2022-12-29T10:23:40;16.63;;;7.22;;
37205;SDS011;23099;42.636;23.198;2022-12-29T10:26:09;14.43;;;7.80;;
37205;SDS011;23099;42.636;23.198;2022-12-29T10:28:40;16.38;;;7.78;;
37205;SDS011;23099;42.636;23.198;2022-12-29T10:31:11;15.23;;;7.78;;
37205;SDS011;23099;42.636;23.198;2022-12-29T10:33:46;16.15;;;7.60;;
37205;SDS011;23099;42.636;23.198;2022-12-29T10:36:17;13.65;;;7.18;;
37205;SDS011;23099;42.636;23.198;2022-12-29T10:38:48;12.70;;;7.20;;
37205;SDS011;23099;42.636;23.198;2022-12-29T10:41:28;14.73;;;6.78;;
37205;SDS011;23099;42.636;23.198;2022-12-29T10:44:03;13.35;;;6.97;;
37205;SDS011;23099;42.636;23.198;2022-12-29T10:46:32;14.20;;;6.85;;
37205;SDS011;23099;42.636;23.198;2022-12-29T10:49:03;10.63;;;5.38;;
37205;SDS011;23099;42.636;23.198;2022-12-29T10:51:32;12.05;;;5.85;;
37205;SDS011;23099;42.636;23.198;2022-12-29T10:54:03;12.15;;;5.68;;
37205;SDS011;23099;42.636;23.198;2022-12-29T10:56:38;11.25;;;5.82;;
37205;SDS011;23099;42.636;23.198;2022-12-29T10:59:10;15.18;;;6.53;;
37205;SDS011;23099;42.636;23.198;2022-12-29T11:01:46;15.18;;;7.97;;
37205;SDS011;23099;42.636;23.198;2022-12-29T11:04:38;14.95;;;6.90;;
37205;SDS011;23099;42.636;23.198;2022-12-29T11:07:14;18.42;;;7.10;;
37205;SDS011;23099;42.636;23.198;2022-12-29T11:09:43;13.75;;;6.82;;
37205;SDS011;23099;42.636;23.198;2022-12-29T11:12:21;13.88;;;6.82;;
37205;SDS011;23099;42.636;23.198;2022-12-29T11:15:07;14.45;;;6.88;;
37205;SDS011;23099;42.636;23.198;2022-12-29T11:17:46;13.70;;;6.53;;
37205;SDS011;23099;42.636;23.198;2022-12-29T11:20:29;12.70;;;7.18;;
37205;SDS011;23099;42.636;23.198;2022-12-29T11:22:58;13.48;;;7.43;;
37205;SDS011;23099;42.636;23.198;2022-12-29T11:25:26;14.60;;;7.60;;
37205;SDS011;23099;42.636;23.198;2022-12-29T11:27:57;14.95;;;7.60;;
37205;SDS011;23099;42.636;23.198;2022-12-29T11:30:26;14.93;;;6.63;;
37205;SDS011;23099;42.636;23.198;2022-12-29T11:32:54;14.45;;;6.53;;
37205;SDS011;23099;42.636;23.198;2022-12-29T11:35:30;12.77;;;6.75;;
37205;SDS011;23099;42.636;23.198;2022-12-29T11:37:59;13.57;;;7.18;;
37205;SDS011;23099;42.636;23.198;2022-12-29T11:42:55;11.90;;;5.82;;
37205;SDS011;23099;42.636;23.198;2022-12-29T11:45:25;12.75;;;6.30;;
37205;SDS011;23099;42.636;23.198;2022-12-29T11:47:54;10.63;;;5.82;;
37205;SDS011;23099;42.636;23.198;2022-12-29T11:50:24;13.88;;;6.63;;
37205;SDS011;23099;42.636;23.198;2022-12-29T11:52:59;12.10;;;6.25;;
37205;SDS011;23099;42.636;23.198;2022-12-29T11:55:29;11.35;;;6.05;;
37205;SDS011;23099;42.636;23.198;2022-12-29T11:57:58;15.67;;;7.00;;
37205;SDS011;23099;42.636;23.198;2022-12-29T12:00:27;15.20;;;6.72;;
37205;SDS011;23099;42.636;23.198;2022-12-29T12:02:57;12.60;;;7.00;;
37205;SDS011;23099;42.636;23.198;2022-12-29T12:05:31;11.70;;;5.65;;
37205;SDS011;23099;42.636;23.198;2022-12-29T12:08:09;12.23;;;5.95;;
37205;SDS011;23099;42.636;23.198;2022-12-29T12:10:43;23.75;;;8.07;;
37205;SDS011;23099;42.636;23.198;2022-12-29T12:13:17;11.20;;;6.07;;
37205;SDS011;23099;42.636;23.198;2022-12-29T12:15:49;14.80;;;7.15;;
37205;SDS011;23099;42.636;23.198;2022-12-29T12:18:24;13.48;;;6.15;;
37205;SDS011;23099;42.636;23.198;2022-12-29T12:20:59;14.73;;;7.65;;
37205;SDS011;23099;42.636;23.198;2022-12-29T12:23:38;15.55;;;8.00;;
37205;SDS011;23099;42.636;23.198;2022-12-29T12:26:13;15.10;;;8.00;;
37205;SDS011;23099;42.636;23.198;2022-12-29T12:28:46;12.55;;;6.32;;
37205;SDS011;23099;42.636;23.198;2022-12-29T12:31:21;13.45;;;7.57;;
37205;SDS011;23099;42.636;23.198;2022-12-29T12:33:57;12.10;;;6.43;;
37205;SDS011;23099;42.636;23.198;2022-12-29T12:36:31;17.00;;;7.95;;
37205;SDS011;23099;42.636;23.198;2022-12-29T12:39:16;12.95;;;6.78;;
37205;SDS011;23099;42.636;23.198;2022-12-29T12:41:52;15.18;;;7.63;;
37205;SDS011;23099;42.636;23.198;2022-12-29T12:44:33;17.20;;;8.88;;
37205;SDS011;23099;42.636;23.198;2022-12-29T12:47:13;15.23;;;6.63;;
37205;SDS011;23099;42.636;23.198;2022-12-29T12:52:45;11.43;;;6.03;;
37205;SDS011;23099;42.636;23.198;2022-12-29T12:55:39;12.68;;;6.90;;
37205;SDS011;23099;42.636;23.198;2022-12-29T12:58:16;14.65;;;7.90;;
37205;SDS011;23099;42.636;23.198;2022-12-29T13:00:59;13.15;;;8.18;;
37205;SDS011;23099;42.636;23.198;2022-12-29T13:03:43;14.43;;;6.63;;
37205;SDS011;23099;42.636;23.198;2022-12-29T13:06:18;12.23;;;6.35;;
37205;SDS011;23099;42.636;23.198;2022-12-29T13:08:58;14.20;;;7.38;;
37205;SDS011;23099;42.636;23.198;2022-12-29T13:11:37;10.70;;;6.32;;
37205;SDS011;23099;42.636;23.198;2022-12-29T13:14:16;11.73;;;6.28;;
37205;SDS011;23099;42.636;23.198;2022-12-29T13:19:23;16.25;;;7.65;;
37205;SDS011;23099;42.636;23.198;2022-12-29T13:21:57;12.38;;;6.75;;
37205;SDS011;23099;42.636;23.198;2022-12-29T13:24:32;18.70;;;8.25;;
37205;SDS011;23099;42.636;23.198;2022-12-29T13:27:11;24.15;;;13.70;;
37205;SDS011;23099;42.636;23.198;2022-12-29T13:29:43;37.50;;;20.02;;
37205;SDS011;23099;42.636;23.198;2022-12-29T13:32:23;35.85;;;18.90;;
37205;SDS011;23099;42.636;23.198;2022-12-29T13:35:01;32.30;;;16.75;;
37205;SDS011;23099;42.636;23.198;2022-12-29T13:37:45;31.08;;;16.60;;
37205;SDS011;23099;42.636;23.198;2022-12-29T13:40:16;44.47;;;24.63;;
37205;SDS011;23099;42.636;23.198;2022-12-29T13:42:48;50.20;;;27.23;;
37205;SDS011;23099;42.636;23.198;2022-12-29T13:45:17;51.38;;;28.00;;
37205;SDS011;23099;42.636;23.198;2022-12-29T13:47:47;50.25;;;28.88;;
37205;SDS011;23099;42.636;23.198;2022-12-29T13:50:21;54.67;;;29.98;;
37205;SDS011;23099;42.636;23.198;2022-12-29T13:52:55;56.25;;;29.30;;
37205;SDS011;23099;42.636;23.198;2022-12-29T13:55:29;58.33;;;30.33;;
37205;SDS011;23099;42.636;23.198;2022-12-29T13:58:03;54.78;;;31.45;;
37205;SDS011;23099;42.636;23.198;2022-12-29T14:00:40;58.15;;;31.08;;
37205;SDS011;23099;42.636;23.198;2022-12-29T14:03:24;59.30;;;34.92;;
37205;SDS011;23099;42.636;23.198;2022-12-29T14:06:12;56.38;;;32.40;;
37205;SDS011;23099;42.636;23.198;2022-12-29T14:08:42;58.65;;;31.90;;
37205;SDS011;23099;42.636;23.198;2022-12-29T14:11:10;57.10;;;29.17;;
37205;SDS011;23099;42.636;23.198;2022-12-29T14:13:42;51.50;;;28.63;;
37205;SDS011;23099;42.636;23.198;2022-12-29T14:16:21;44.55;;;25.63;;
37205;SDS011;23099;42.636;23.198;2022-12-29T14:18:52;59.33;;;31.65;;
37205;SDS011;23099;42.636;23.198;2022-12-29T14:21:22;67.10;;;37.95;;
37205;SDS011;23099;42.636;23.198;2022-12-29T14:23:53;74.20;;;37.72;;
37205;SDS011;23099;42.636;23.198;2022-12-29T14:26:32;73.13;;;38.33;;
37205;SDS011;23099;42.636;23.198;2022-12-29T14:29:41;77.47;;;39.88;;
37205;SDS011;23099;42.636;23.198;2022-12-29T14:38:12;64.30;;;34.75;;
37205;SDS011;23099;42.636;23.198;2022-12-29T14:40:42;65.88;;;34.40;;
37205;SDS011;23099;42.636;23.198;2022-12-29T14:43:13;64.28;;;36.03;;
37205;SDS011;23099;42.636;23.198;2022-12-29T14:45:48;71.30;;;36.45;;
37205;SDS011;23099;42.636;23.198;2022-12-29T14:48:20;66.75;;;35.58;;
37205;SDS011;23099;42.636;23.198;2022-12-29T14:50:55;64.70;;;35.03;;
37205;SDS011;23099;42.636;23.198;2022-12-29T14:56:16;70.88;;;36.10;;